Webster City, Iowa
Current Conditions -  °F | °C
As of 10:55 AM on Friday 24 Oct 2014 (Local Time) from KEBS Reporting Station
Haze Haze  
Wind Chill: 59°   Ceiling: 300
Heat Index: 59°   Visibility: 0.75mi
Dew Point: 59°   Wind: 13mph
Humidity: 100%   Direction: 190°S
Pressure: 29.91"   Gusts: NA
Location:  42.47°N, 93.82°W
Report Text: KEBS 241555Z AUTO 19011KT 3/4SM BR OVC003 15/15 A2991 RMK AO2
Loading
Personal Weather Stations






























Interactive Weather Map
Tropical Storm Tracking
New forecast layout! Learn more

10-Day Weather Forecast

Advertisements
Track Severe Weather on mobile